Flight Track Log - Related Links

Times and Time Zones

All times are in EDT time to prevent confusion due to time zone crossing. See the N960DL flight status page for this flight to view local times or setup timezone preferences in your user account.

Time Position Orientation Groundspeed Altitude Reporting Facility
EDT Latitude Longitude Course Direction KTS MPH feet Rate Location/Type
Thu 12:35:33 PM 33.6500 -84.4500 234° Southwest 152 175 2,200  Level Atlanta TRACON
Thu 12:36:33 PM 33.6500 -84.5167 270° West 224 258 3,900 2,476 Climbing Atlanta TRACON
Thu 12:37:39 PM 33.6667 -84.6000 284° West 255 293 7,400 2,325 Climbing Atlanta TRACON
Thu 12:38:00 PM 33.8001 -84.3818 270° West  Level FlightAware Approximate
Thu 12:39:00 PM 33.8000 -84.5254 270° West  Level FlightAware Approximate
Thu 12:39:44 PM 33.6833 -84.7953 276° West 280 322 11,300  Level Atlanta Center
Thu 12:40:00 PM 33.7520 -84.6511 234° Southwest  Level FlightAware Approximate
Thu 12:40:44 PM 33.6369 -84.8872 239° Southwest 318 366 13,200  Level Atlanta Center
Thu 12:41:44 PM 33.5797 -84.9989 238° Southwest 377 434 16,300 2,750 Climbing Atlanta Center
Thu 12:42:44 PM 33.5244 -85.1103 239° Southwest 393 452 18,700 2,100 Climbing Atlanta Center
Thu 12:43:44 PM 33.4714 -85.2267 241° Southwest 400 460 20,500 1,767 Climbing Atlanta Center
Thu 12:45:44 PM 33.4183 -85.5022 257° West 426 490 24,000 1,733 Climbing Atlanta Center
Thu 12:46:44 PM 33.3850 -85.6533 255° West 433 498 25,700 1,950 Climbing Atlanta Center
Thu 12:47:44 PM 33.3147 -85.7664 233° Southwest 418 481 27,900 2,000 Climbing Atlanta Center
Thu 12:48:44 PM 33.2364 -85.8419 219° Southwest 407 468 29,700 1,500 Climbing Atlanta Center
Thu 12:49:44 PM 33.1472 -85.9319 220° Southwest 413 475 30,900 1,400 Climbing Atlanta Center
Thu 12:50:44 PM 33.0497 -86.0314 221° Southwest 426 490 32,500 1,150 Climbing Atlanta Center
Thu 12:51:44 PM 32.9625 -86.1233 222° Southwest 426 490 33,200 750 Climbing Atlanta Center
Thu 12:52:44 PM 32.8756 -86.2153 222° Southwest 426 490 34,000 700 Climbing Atlanta Center
Thu 12:53:44 PM 32.7861 -86.3044 220° Southwest 426 490 34,600 800 Climbing Atlanta Center
Thu 12:54:44 PM 32.6967 -86.3961 221° Southwest 421 484 35,600 700 Climbing Atlanta Center
Thu 12:55:44 PM 32.5953 -86.4672 211° Southwest 421 484 36,000 200 Climbing Atlanta Center
Thu 12:56:44 PM 32.5147 -86.5217 210° Southwest 421 484 36,000  Level Atlanta Center
Thu 12:57:44 PM 32.4047 -86.6000 211° Southwest 421 484 36,000  Level Atlanta Center
Thu 12:58:44 PM 32.3050 -86.6731 212° Southwest 432 497 36,000  Level Atlanta Center
Thu 12:59:44 PM 32.1844 -86.7481 208° Southwest 448 516 36,000  Level Atlanta Center
Thu 01:00:44 PM 32.0825 -86.8211 211° Southwest 448 516 36,000  Level Atlanta Center
Thu 01:01:44 PM 31.9808 -86.8939 211° Southwest 443 510 36,000  Level Atlanta Center
Thu 01:02:44 PM 31.8789 -86.9639 210° Southwest 432 497 36,000  Level Atlanta Center
Thu 01:03:44 PM 31.7772 -87.0339 210° Southwest 432 497 36,000  Level Atlanta Center
Thu 01:04:44 PM 31.6964 -87.0897 210° Southwest 432 497 36,000  Level Atlanta Center
Thu 01:05:57 PM 31.5903 -87.2006 222° Southwest 418 481 36,000  Level Houston Center
Thu 01:06:59 PM 31.5003 -87.3256 230° Southwest 419 482 36,000  Level Houston Center
Thu 01:08:01 PM 31.4250 -87.4289 230° Southwest 418 481 36,000  Level Houston Center
Thu 01:09:03 PM 31.3483 -87.5322 229° Southwest 422 486 36,000  Level Houston Center
Thu 01:10:05 PM 31.2719 -87.6361 229° Southwest 421 484 36,000  Level Houston Center
Thu 01:11:08 PM 31.1986 -87.7344 229° Southwest 420 483 36,000  Level Houston Center
Thu 01:12:10 PM 31.1069 -87.8589 229° Southwest 422 486 36,000 -339 Level Houston Center
Thu 01:13:12 PM 31.0283 -87.9619 228° Southwest 426 490 35,300 -871 Descending Houston Center
Thu 01:14:14 PM 30.9494 -88.0639 228° Southwest 426 490 34,200 -1,016 Descending Houston Center
Thu 01:15:16 PM 30.8667 -88.1683 227° Southwest 437 503 33,200 -1,016 Descending Houston Center
Thu 01:16:18 PM 30.7894 -88.2744 230° Southwest 431 496 32,100 -1,306 Descending Houston Center
Thu 01:17:20 PM 30.7017 -88.4058 232° Southwest 432 497 30,500 -1,248 Descending Houston Center
Thu 01:18:23 PM 30.6542 -88.5192 244° Southwest 427 491 29,500 -768 Descending Houston Center
Thu 01:19:25 PM 30.5994 -88.6433 243° Southwest 431 496 28,900 -581 Descending Houston Center
Thu 01:20:27 PM 30.5456 -88.7650 243° Southwest 426 490 28,300 -1,258 Descending Houston Center
Thu 01:21:29 PM 30.4586 -88.8919 232° Southwest 423 487 26,300 -2,081 Descending Houston Center
Thu 01:22:31 PM 30.3981 -88.9831 232° Southwest 415 478 24,000 -2,419 Descending Houston Center
Thu 01:23:33 PM 30.3536 -89.1256 250° West 394 453 21,300 -2,371 Descending Houston Center
Thu 01:24:35 PM 30.3192 -89.2375 250° West 378 435 19,100 -2,129 Descending Houston Center
Thu 01:25:37 PM 30.2853 -89.3467 250° West 364 419 16,900 -2,276 Descending Houston Center
Thu 01:26:31 PM 30.2544 -89.4508 251° West 349 402 14,700 -2,529 Descending Houston Center
Thu 01:27:38 PM 30.2167 -89.5633 249° West 349 402 11,800 -1,918 Descending Houston Center
Thu 01:28:33 PM 30.1844 -89.6611 249° West 349 402 10,800 -879 Descending Houston Center
Thu 01:29:34 PM 30.1522 -89.7539 248° West 309 356 10,100 -1,134 Descending Houston Center
Thu 01:30:40 PM 30.1222 -89.8539 251° West 278 320 8,400 -1,559 Descending Houston Center
Thu 01:31:41 PM 30.1000 -89.9389 253° West 274 315 6,800 -1,473 Descending Houston Center
Thu 01:32:30 PM 30.0811 -90.0022 251° West 272 313 5,700 -1,437 Descending Houston Center
Thu 01:32:52 PM 30.0778 -90.0314 262° West 273 314 5,100 -1,475 Descending Houston Center
Thu 01:33:31 PM 30.0817 -90.0864 275° West 261 300 4,200 -1,143 Descending Houston Center
Thu 01:33:55 PM 30.0803 -90.1156 267° West 265 305 3,900 -689 Descending Houston Center
Thu 01:34:32 PM 30.0739 -90.1756 263° West 266 306 3,500 -871 Descending Houston Center
Thu 01:34:57 PM 30.0750 -90.2014 273° West 266 306 3,000 -1,200 Descending Houston Center

Login

Don't have an account? Register now (free) for customized features, flight alerts, and more!